sensor_id;sensor_type;location;lat;lon;timestamp;pressure;altitude;pressure_sealevel;temperature
75658;BMP280;64255;49.892;17.884;2023-04-01T00:01:43;97028.09;;;8.17
75658;BMP280;64255;49.892;17.884;2023-04-01T00:04:29;97025.41;;;8.17
75658;BMP280;64255;49.892;17.884;2023-04-01T00:07:16;97027.59;;;8.13
75658;BMP280;64255;49.892;17.884;2023-04-01T00:10:07;97032.91;;;8.07
75658;BMP280;64255;49.892;17.884;2023-04-01T00:12:54;97026.34;;;8.08
75658;BMP280;64255;49.892;17.884;2023-04-01T00:15:42;97032.91;;;8.07
75658;BMP280;64255;49.892;17.884;2023-04-01T00:18:29;97024.16;;;8.06
75658;BMP280;64255;49.892;17.884;2023-04-01T00:21:17;97052.00;;;8.05
75658;BMP280;64255;49.892;17.884;2023-04-01T00:24:04;97047.16;;;8.04
75658;BMP280;64255;49.892;17.884;2023-04-01T00:26:51;97031.69;;;8.02
75658;BMP280;64255;49.892;17.884;2023-04-01T00:29:37;97035.91;;;7.71
75658;BMP280;64255;49.892;17.884;2023-04-01T00:32:24;97044.25;;;7.41
75658;BMP280;64255;49.892;17.884;2023-04-01T00:35:10;97032.75;;;7.67
75658;BMP280;64255;49.892;17.884;2023-04-01T00:37:58;97038.19;;;7.47
75658;BMP280;64255;49.892;17.884;2023-04-01T00:40:46;97018.06;;;7.40
75658;BMP280;64255;49.892;17.884;2023-04-01T00:43:33;97015.34;;;7.72
75658;BMP280;64255;49.892;17.884;2023-04-01T00:46:20;97013.66;;;7.74
75658;BMP280;64255;49.892;17.884;2023-04-01T00:49:06;97012.19;;;7.73
75658;BMP280;64255;49.892;17.884;2023-04-01T00:51:56;97008.94;;;7.52
75658;BMP280;64255;49.892;17.884;2023-04-01T00:54:47;97017.69;;;7.58
75658;BMP280;64255;49.892;17.884;2023-04-01T00:57:37;97016.94;;;7.52
75658;BMP280;64255;49.892;17.884;2023-04-01T01:00:26;97008.47;;;7.54
75658;BMP280;64255;49.892;17.884;2023-04-01T01:03:13;97006.50;;;7.49
75658;BMP280;64255;49.892;17.884;2023-04-01T01:06:16;96994.63;;;7.44
75658;BMP280;64255;49.892;17.884;2023-04-01T01:10:02;97003.53;;;7.35
75658;BMP280;64255;49.892;17.884;2023-04-01T01:13:10;96997.53;;;7.03
75658;BMP280;64255;49.892;17.884;2023-04-01T01:25:59;96997.19;;;7.82
75658;BMP280;64255;49.892;17.884;2023-04-01T01:35:26;96998.72;;;8.00
75658;BMP280;64255;49.892;17.884;2023-04-01T01:38:24;96998.72;;;8.00
75658;BMP280;64255;49.892;17.884;2023-04-01T01:41:16;97000.59;;;7.82
75658;BMP280;64255;49.892;17.884;2023-04-01T01:44:07;97008.06;;;7.72
75658;BMP280;64255;49.892;17.884;2023-04-01T01:46:56;97006.59;;;7.71
75658;BMP280;64255;49.892;17.884;2023-04-01T01:49:45;97001.34;;;7.94
75658;BMP280;64255;49.892;17.884;2023-04-01T01:52:31;96999.72;;;8.02
75658;BMP280;64255;49.892;17.884;2023-04-01T01:55:34;96997.78;;;8.20
75658;BMP280;64255;49.892;17.884;2023-04-01T01:58:32;97007.25;;;8.21
75658;BMP280;64255;49.892;17.884;2023-04-01T02:01:26;97009.19;;;8.20
75658;BMP280;64255;49.892;17.884;2023-04-01T02:04:14;97017.66;;;8.24
75658;BMP280;64255;49.892;17.884;2023-04-01T02:07:30;97019.09;;;8.14
75658;BMP280;64255;49.892;17.884;2023-04-01T02:10:15;97020.31;;;8.19
75658;BMP280;64255;49.892;17.884;2023-04-01T02:13:39;97017.59;;;7.96
75658;BMP280;64255;49.892;17.884;2023-04-01T02:16:36;97023.38;;;7.83
75658;BMP280;64255;49.892;17.884;2023-04-01T02:19:38;97021.94;;;7.94
75658;BMP280;64255;49.892;17.884;2023-04-01T02:22:35;97029.44;;;7.89
75658;BMP280;64255;49.892;17.884;2023-04-01T02:25:34;97024.19;;;8.18
75658;BMP280;64255;49.892;17.884;2023-04-01T02:28:24;97031.22;;;8.15
75658;BMP280;64255;49.892;17.884;2023-04-01T02:31:13;97031.91;;;8.04
75658;BMP280;64255;49.892;17.884;2023-04-01T02:34:01;97019.34;;;8.16
75658;BMP280;64255;49.892;17.884;2023-04-01T02:36:50;97008.72;;;8.45
75658;BMP280;64255;49.892;17.884;2023-04-01T02:39:37;97016.97;;;8.47
75658;BMP280;64255;49.892;17.884;2023-04-01T02:42:23;97016.97;;;8.58
75658;BMP280;64255;49.892;17.884;2023-04-01T02:45:11;97025.94;;;8.49
75658;BMP280;64255;49.892;17.884;2023-04-01T02:47:57;97016.97;;;8.58
75658;BMP280;64255;49.892;17.884;2023-04-01T02:50:44;97023.28;;;8.55
75658;BMP280;64255;49.892;17.884;2023-04-01T02:53:30;97031.75;;;8.48
75658;BMP280;64255;49.892;17.884;2023-04-01T02:56:17;97022.06;;;8.67
75658;BMP280;64255;49.892;17.884;2023-04-01T02:59:03;97027.91;;;8.66
75658;BMP280;64255;49.892;17.884;2023-04-01T03:01:50;97029.34;;;8.78
75658;BMP280;64255;49.892;17.884;2023-04-01T03:04:36;97037.09;;;8.70
75658;BMP280;64255;49.892;17.884;2023-04-01T03:07:23;97042.69;;;8.84
75658;BMP280;64255;49.892;17.884;2023-04-01T03:10:10;97041.75;;;8.87
75658;BMP280;64255;49.892;17.884;2023-04-01T03:12:56;97038.31;;;8.92
75658;BMP280;64255;49.892;17.884;2023-04-01T03:15:43;97034.19;;;9.02
75658;BMP280;64255;49.892;17.884;2023-04-01T03:18:29;97032.50;;;8.94
75658;BMP280;64255;49.892;17.884;2023-04-01T03:21:22;97030.06;;;9.01
75658;BMP280;64255;49.892;17.884;2023-04-01T03:24:08;97036.16;;;8.96
75658;BMP280;64255;49.892;17.884;2023-04-01T03:26:55;97028.38;;;8.59
75658;BMP280;64255;49.892;17.884;2023-04-01T03:29:41;97042.94;;;8.80
75658;BMP280;64255;49.892;17.884;2023-04-01T03:32:28;97040.72;;;8.90
75658;BMP280;64255;49.892;17.884;2023-04-01T03:35:14;97042.47;;;8.76
75658;BMP280;64255;49.892;17.884;2023-04-01T03:38:01;97041.50;;;8.85
75658;BMP280;64255;49.892;17.884;2023-04-01T03:40:47;97044.63;;;8.89
75658;BMP280;64255;49.892;17.884;2023-04-01T03:43:34;97052.66;;;8.89
75658;BMP280;64255;49.892;17.884;2023-04-01T03:46:20;97045.84;;;8.88
75658;BMP280;64255;49.892;17.884;2023-04-01T03:49:09;97051.91;;;8.88
75658;BMP280;64255;49.892;17.884;2023-04-01T03:51:56;97052.88;;;8.91
75658;BMP280;64255;49.892;17.884;2023-04-01T03:54:42;97057.25;;;8.94
75658;BMP280;64255;49.892;17.884;2023-04-01T03:57:31;97050.44;;;8.93
75658;BMP280;64255;49.892;17.884;2023-04-01T04:00:18;97047.75;;;8.99
75658;BMP280;64255;49.892;17.884;2023-04-01T04:03:06;97055.06;;;8.93
75658;BMP280;64255;49.892;17.884;2023-04-01T04:05:52;97054.59;;;8.94
75658;BMP280;64255;49.892;17.884;2023-04-01T04:08:39;97050.94;;;8.92
75658;BMP280;64255;49.892;17.884;2023-04-01T04:11:26;97047.06;;;8.93
75658;BMP280;64255;49.892;17.884;2023-04-01T04:14:12;97057.75;;;8.87
75658;BMP280;64255;49.892;17.884;2023-04-01T04:16:59;97054.34;;;8.92
75658;BMP280;64255;49.892;17.884;2023-04-01T04:19:45;97057.50;;;8.90
75658;BMP280;64255;49.892;17.884;2023-04-01T04:22:32;97056.53;;;8.88
75658;BMP280;64255;49.892;17.884;2023-04-01T04:25:18;97054.06;;;8.90
75658;BMP280;64255;49.892;17.884;2023-04-01T04:28:04;97055.06;;;8.93
75658;BMP280;64255;49.892;17.884;2023-04-01T04:30:51;97055.53;;;8.91
75658;BMP280;64255;49.892;17.884;2023-04-01T04:33:37;97052.16;;;8.90
75658;BMP280;64255;49.892;17.884;2023-04-01T04:36:24;97050.19;;;8.91
75658;BMP280;64255;49.892;17.884;2023-04-01T04:39:10;97057.50;;;8.96
75658;BMP280;64255;49.892;17.884;2023-04-01T04:41:57;97057.97;;;8.83
75658;BMP280;64255;49.892;17.884;2023-04-01T04:44:43;97064.31;;;8.97
75658;BMP280;64255;49.892;17.884;2023-04-01T04:47:30;97063.56;;;8.97
75658;BMP280;64255;49.892;17.884;2023-04-01T04:50:17;97062.81;;;9.02
75658;BMP280;64255;49.892;17.884;2023-04-01T04:53:03;97056.03;;;9.01
75658;BMP280;64255;49.892;17.884;2023-04-01T04:55:50;97066.72;;;9.06
75658;BMP280;64255;49.892;17.884;2023-04-01T04:58:38;97065.00;;;9.15
75658;BMP280;64255;49.892;17.884;2023-04-01T05:01:25;97062.06;;;9.01
75658;BMP280;64255;49.892;17.884;2023-04-01T05:04:12;97056.25;;;9.26
75658;BMP280;64255;49.892;17.884;2023-04-01T05:06:58;97056.97;;;9.26
75658;BMP280;64255;49.892;17.884;2023-04-01T05:09:44;97060.63;;;9.23
75658;BMP280;64255;49.892;17.884;2023-04-01T05:12:31;97065.97;;;9.23
75658;BMP280;64255;49.892;17.884;2023-04-01T05:15:18;97052.31;;;9.38
75658;BMP280;64255;49.892;17.884;2023-04-01T05:18:04;97058.38;;;9.44
75658;BMP280;64255;49.892;17.884;2023-04-01T05:20:53;97058.84;;;9.54
75658;BMP280;64255;49.892;17.884;2023-04-01T05:23:41;97055.66;;;9.61
75658;BMP280;64255;49.892;17.884;2023-04-01T05:26:27;97057.09;;;9.68
75658;BMP280;64255;49.892;17.884;2023-04-01T05:29:14;97063.38;;;9.82
75658;BMP280;64255;49.892;17.884;2023-04-01T05:32:00;97060.94;;;9.84
75658;BMP280;64255;49.892;17.884;2023-04-01T05:34:51;97060.19;;;9.89
75658;BMP280;64255;49.892;17.884;2023-04-01T05:37:37;97064.03;;;9.94
75658;BMP280;64255;49.892;17.884;2023-04-01T05:40:24;97069.13;;;9.97
75658;BMP280;64255;49.892;17.884;2023-04-01T05:43:10;97064.28;;;9.96
75658;BMP280;64255;49.892;17.884;2023-04-01T05:45:58;97065.47;;;10.00
75658;BMP280;64255;49.892;17.884;2023-04-01T05:48:44;97069.09;;;10.09
75658;BMP280;64255;49.892;17.884;2023-04-01T05:51:31;97060.09;;;10.06
75658;BMP280;64255;49.892;17.884;2023-04-01T05:54:18;97067.41;;;10.05
75658;BMP280;64255;49.892;17.884;2023-04-01T05:57:05;97067.66;;;10.02
75658;BMP280;64255;49.892;17.884;2023-04-01T05:59:52;97057.13;;;10.15
75658;BMP280;64255;49.892;17.884;2023-04-01T06:02:38;97065.44;;;10.06
75658;BMP280;64255;49.892;17.884;2023-04-01T06:05:30;97057.88;;;10.16
75658;BMP280;64255;49.892;17.884;2023-04-01T06:08:18;97050.34;;;10.14
75658;BMP280;64255;49.892;17.884;2023-04-01T06:11:35;97064.13;;;10.24
75658;BMP280;64255;49.892;17.884;2023-04-01T06:21:26;97066.81;;;10.24
75658;BMP280;64255;49.892;17.884;2023-04-01T06:24:32;97065.38;;;10.17
75658;BMP280;64255;49.892;17.884;2023-04-01T06:28:38;97069.25;;;10.22
75658;BMP280;64255;49.892;17.884;2023-04-01T06:38:19;97077.13;;;10.09
75658;BMP280;64255;49.892;17.884;2023-04-01T06:45:08;97078.31;;;10.13
75658;BMP280;64255;49.892;17.884;2023-04-01T06:54:44;97076.28;;;10.25
75658;BMP280;64255;49.892;17.884;2023-04-01T06:57:41;97078.56;;;10.51
75658;BMP280;64255;49.892;17.884;2023-04-01T07:00:39;97082.63;;;10.58
75658;BMP280;64255;49.892;17.884;2023-04-01T07:03:55;97077.06;;;10.56
75658;BMP280;64255;49.892;17.884;2023-04-01T07:07:17;97089.28;;;10.46
75658;BMP280;64255;49.892;17.884;2023-04-01T07:10:23;97096.88;;;10.42
75658;BMP280;64255;49.892;17.884;2023-04-01T07:16:34;97097.53;;;10.48
75658;BMP280;64255;49.892;17.884;2023-04-01T07:22:30;97110.22;;;10.83
75658;BMP280;64255;49.892;17.884;2023-04-01T07:25:24;97099.81;;;10.74
75658;BMP280;64255;49.892;17.884;2023-04-01T07:28:16;97106.38;;;10.73
75658;BMP280;64255;49.892;17.884;2023-04-01T07:31:42;97103.75;;;10.98
75658;BMP280;64255;49.892;17.884;2023-04-01T07:48:35;97107.97;;;11.43
75658;BMP280;64255;49.892;17.884;2023-04-01T07:51:52;97112.53;;;11.23
75658;BMP280;64255;49.892;17.884;2023-04-01T07:54:56;97114.88;;;11.32
75658;BMP280;64255;49.892;17.884;2023-04-01T08:05:39;97121.47;;;11.31
75658;BMP280;64255;49.892;17.884;2023-04-01T08:08:51;97123.50;;;11.25
75658;BMP280;64255;49.892;17.884;2023-04-01T08:11:55;97126.59;;;11.29
75658;BMP280;64255;49.892;17.884;2023-04-01T08:15:12;97134.88;;;11.31
75658;BMP280;64255;49.892;17.884;2023-04-01T08:21:53;97133.81;;;11.40
75658;BMP280;64255;49.892;17.884;2023-04-01T08:24:46;97135.09;;;11.58
75658;BMP280;64255;49.892;17.884;2023-04-01T08:27:41;97135.66;;;11.51
75658;BMP280;64255;49.892;17.884;2023-04-01T08:30:56;97140.00;;;11.54
75658;BMP280;64255;49.892;17.884;2023-04-01T08:33:47;97142.78;;;11.67
75658;BMP280;64255;49.892;17.884;2023-04-01T08:36:42;97134.84;;;11.81
75658;BMP280;64255;49.892;17.884;2023-04-01T08:39:39;97142.66;;;11.79
75658;BMP280;64255;49.892;17.884;2023-04-01T08:52:22;97139.09;;;11.70
75658;BMP280;64255;49.892;17.884;2023-04-01T08:55:28;97141.00;;;11.76
75658;BMP280;64255;49.892;17.884;2023-04-01T08:58:54;97139.66;;;12.07
75658;BMP280;64255;49.892;17.884;2023-04-01T09:02:42;97133.56;;;12.26
75658;BMP280;64255;49.892;17.884;2023-04-01T09:09:28;97134.59;;;12.23
75658;BMP280;64255;49.892;17.884;2023-04-01T09:12:39;97139.31;;;12.35
75658;BMP280;64255;49.892;17.884;2023-04-01T09:16:12;97137.19;;;12.28
75658;BMP280;64255;49.892;17.884;2023-04-01T09:19:16;97136.97;;;12.45
75658;BMP280;64255;49.892;17.884;2023-04-01T09:45:01;97140.78;;;14.51
75658;BMP280;64255;49.892;17.884;2023-04-01T10:06:26;97142.13;;;14.86
75658;BMP280;64255;49.892;17.884;2023-04-01T10:33:38;97147.91;;;13.39
75658;BMP280;64255;49.892;17.884;2023-04-01T10:36:55;97151.84;;;13.38
75658;BMP280;64255;49.892;17.884;2023-04-01T10:40:12;97146.69;;;13.27
75658;BMP280;64255;49.892;17.884;2023-04-01T10:50:23;97149.28;;;13.32
75658;BMP280;64255;49.892;17.884;2023-04-01T10:53:34;97150.44;;;13.37
75658;BMP280;64255;49.892;17.884;2023-04-01T10:59:57;97156.94;;;14.16
75658;BMP280;64255;49.892;17.884;2023-04-01T11:17:07;97165.22;;;14.18
75658;BMP280;64255;49.892;17.884;2023-04-01T11:26:40;97164.81;;;14.14
75658;BMP280;64255;49.892;17.884;2023-04-01T11:43:20;97166.22;;;13.41
75658;BMP280;64255;49.892;17.884;2023-04-01T11:46:30;97181.75;;;13.61
75658;BMP280;64255;49.892;17.884;2023-04-01T12:13:02;97200.34;;;13.99
75658;BMP280;64255;49.892;17.884;2023-04-01T12:22:58;97205.38;;;14.03
75658;BMP280;64255;49.892;17.884;2023-04-01T12:26:03;97204.91;;;13.91
75658;BMP280;64255;49.892;17.884;2023-04-01T12:29:16;97202.41;;;13.93
75658;BMP280;64255;49.892;17.884;2023-04-01T12:36:01;97207.41;;;13.89
75658;BMP280;64255;49.892;17.884;2023-04-01T12:45:29;97205.22;;;13.74
75658;BMP280;64255;49.892;17.884;2023-04-01T12:52:17;97207.06;;;13.79
75658;BMP280;64255;49.892;17.884;2023-04-01T12:55:30;97210.66;;;14.08
75658;BMP280;64255;49.892;17.884;2023-04-01T13:02:05;97208.81;;;13.90
75658;BMP280;64255;49.892;17.884;2023-04-01T13:11:31;97220.72;;;13.68
75658;BMP280;64255;49.892;17.884;2023-04-01T13:14:43;97214.59;;;13.41
75658;BMP280;64255;49.892;17.884;2023-04-01T13:21:08;97218.75;;;13.55
75658;BMP280;64255;49.892;17.884;2023-04-01T13:28:01;97224.44;;;13.92
75658;BMP280;64255;49.892;17.884;2023-04-01T13:47:41;97210.19;;;13.70
75658;BMP280;64255;49.892;17.884;2023-04-01T14:02:07;97213.78;;;13.99
75658;BMP280;64255;49.892;17.884;2023-04-01T14:05:20;97213.44;;;14.16
75658;BMP280;64255;49.892;17.884;2023-04-01T14:08:28;97206.00;;;14.22
75658;BMP280;64255;49.892;17.884;2023-04-01T14:15:42;97212.19;;;14.17
75658;BMP280;64255;49.892;17.884;2023-04-01T14:25:21;97220.13;;;14.36
75658;BMP280;64255;49.892;17.884;2023-04-01T14:28:38;97220.16;;;14.10
75658;BMP280;64255;49.892;17.884;2023-04-01T14:32:02;97215.81;;;14.20
75658;BMP280;64255;49.892;17.884;2023-04-01T14:35:56;97214.63;;;13.67
75658;BMP280;64255;49.892;17.884;2023-04-01T14:39:38;97222.91;;;13.69
75658;BMP280;64255;49.892;17.884;2023-04-01T14:46:17;97229.63;;;13.76
75658;BMP280;64255;49.892;17.884;2023-04-01T14:49:39;97224.97;;;13.77
75658;BMP280;64255;49.892;17.884;2023-04-01T14:52:32;97219.03;;;13.51
75658;BMP280;64255;49.892;17.884;2023-04-01T14:55:34;97229.53;;;13.55
75658;BMP280;64255;49.892;17.884;2023-04-01T14:58:31;97232.59;;;13.72
75658;BMP280;64255;49.892;17.884;2023-04-01T15:01:43;97236.34;;;13.83
75658;BMP280;64255;49.892;17.884;2023-04-01T15:04:58;97232.22;;;13.68
75658;BMP280;64255;49.892;17.884;2023-04-01T15:08:33;97239.03;;;13.69
75658;BMP280;64255;49.892;17.884;2023-04-01T15:15:14;97235.31;;;12.62
75658;BMP280;64255;49.892;17.884;2023-04-01T15:25:05;97258.47;;;12.97
75658;BMP280;64255;49.892;17.884;2023-04-01T15:47:53;97271.34;;;12.28
75658;BMP280;64255;49.892;17.884;2023-04-01T15:50:54;97261.50;;;12.55
75658;BMP280;64255;49.892;17.884;2023-04-01T16:00:51;97274.09;;;11.98
75658;BMP280;64255;49.892;17.884;2023-04-01T16:17:40;97292.31;;;11.80
75658;BMP280;64255;49.892;17.884;2023-04-01T16:23:55;97302.88;;;11.67
75658;BMP280;64255;49.892;17.884;2023-04-01T16:27:27;97308.13;;;11.84
75658;BMP280;64255;49.892;17.884;2023-04-01T16:30:36;97314.44;;;11.56
75658;BMP280;64255;49.892;17.884;2023-04-01T16:36:44;97318.56;;;11.57
75658;BMP280;64255;49.892;17.884;2023-04-01T16:39:47;97324.09;;;11.34
75658;BMP280;64255;49.892;17.884;2023-04-01T16:47:05;97324.59;;;11.27
75658;BMP280;64255;49.892;17.884;2023-04-01T16:49:27;97336.66;;;11.03
75658;BMP280;64255;49.892;17.884;2023-04-01T16:55:57;97339.53;;;11.17
75658;BMP280;64255;49.892;17.884;2023-04-01T16:59:27;97349.63;;;11.41
75658;BMP280;64255;49.892;17.884;2023-04-01T17:02:20;97346.03;;;11.27
75658;BMP280;64255;49.892;17.884;2023-04-01T17:05:12;97348.13;;;10.98
75658;BMP280;64255;49.892;17.884;2023-04-01T17:08:22;97348.13;;;10.98
75658;BMP280;64255;49.892;17.884;2023-04-01T17:17:41;97366.22;;;10.86
75658;BMP280;64255;49.892;17.884;2023-04-01T17:24:06;97375.66;;;10.99
75658;BMP280;64255;49.892;17.884;2023-04-01T18:02:03;97415.09;;;10.87
75658;BMP280;64255;49.892;17.884;2023-04-01T18:11:19;97421.63;;;10.97
75658;BMP280;64255;49.892;17.884;2023-04-01T18:23:59;97432.56;;;11.05
75658;BMP280;64255;49.892;17.884;2023-04-01T18:30:15;97437.78;;;10.75
75658;BMP280;64255;49.892;17.884;2023-04-01T18:33:31;97438.78;;;10.60
75658;BMP280;64255;49.892;17.884;2023-04-01T18:36:54;97452.16;;;10.37
75658;BMP280;64255;49.892;17.884;2023-04-01T18:43:32;97458.19;;;10.10
75658;BMP280;64255;49.892;17.884;2023-04-01T18:46:39;97460.84;;;9.93
75658;BMP280;64255;49.892;17.884;2023-04-01T18:52:44;97474.28;;;10.15
75658;BMP280;64255;49.892;17.884;2023-04-01T18:55:49;97481.84;;;10.34
75658;BMP280;64255;49.892;17.884;2023-04-01T18:59:32;97481.28;;;9.90
75658;BMP280;64255;49.892;17.884;2023-04-01T19:03:24;97476.97;;;10.38
75658;BMP280;64255;49.892;17.884;2023-04-01T19:06:23;97469.91;;;10.41
75658;BMP280;64255;49.892;17.884;2023-04-01T19:09:27;97476.47;;;10.40
75658;BMP280;64255;49.892;17.884;2023-04-01T19:22:12;97485.75;;;9.44
75658;BMP280;64255;49.892;17.884;2023-04-01T19:37:46;97500.84;;;9.10
75658;BMP280;64255;49.892;17.884;2023-04-01T19:40:59;97507.91;;;9.07
75658;BMP280;64255;49.892;17.884;2023-04-01T19:52:43;97511.78;;;9.55
75658;BMP280;64255;49.892;17.884;2023-04-01T20:04:56;97526.78;;;9.47
75658;BMP280;64255;49.892;17.884;2023-04-01T20:07:52;97515.22;;;9.18
75658;BMP280;64255;49.892;17.884;2023-04-01T20:15:20;97522.09;;;8.87
75658;BMP280;64255;49.892;17.884;2023-04-01T20:20:28;97530.53;;;9.66
75658;BMP280;64255;49.892;17.884;2023-04-01T20:26:27;97524.44;;;9.54
75658;BMP280;64255;49.892;17.884;2023-04-01T20:36:09;97533.25;;;9.83
75658;BMP280;64255;49.892;17.884;2023-04-01T20:39:45;97536.94;;;9.92
75658;BMP280;64255;49.892;17.884;2023-04-01T20:46:22;97541.25;;;9.72
75658;BMP280;64255;49.892;17.884;2023-04-01T20:59:36;97552.16;;;9.63
75658;BMP280;64255;49.892;17.884;2023-04-01T21:06:16;97553.34;;;9.67
75658;BMP280;64255;49.892;17.884;2023-04-01T21:09:46;97556.75;;;9.62
75658;BMP280;64255;49.892;17.884;2023-04-01T21:13:21;97554.28;;;9.53
75658;BMP280;64255;49.892;17.884;2023-04-01T21:48:46;97592.38;;;9.48
75658;BMP280;64255;49.892;17.884;2023-04-01T22:01:26;97618.16;;;9.19
75658;BMP280;64255;49.892;17.884;2023-04-01T22:04:50;97615.53;;;8.93
75658;BMP280;64255;49.892;17.884;2023-04-01T22:23:09;97620.78;;;9.45
75658;BMP280;64255;49.892;17.884;2023-04-01T22:32:42;97628.28;;;8.83
75658;BMP280;64255;49.892;17.884;2023-04-01T22:42:40;97619.13;;;9.21
75658;BMP280;64255;49.892;17.884;2023-04-01T22:49:10;97610.69;;;8.70
75658;BMP280;64255;49.892;17.884;2023-04-01T22:58:38;97627.75;;;8.79
75658;BMP280;64255;49.892;17.884;2023-04-01T23:01:30;97618.84;;;9.14
75658;BMP280;64255;49.892;17.884;2023-04-01T23:04:28;97626.66;;;9.17
75658;BMP280;64255;49.892;17.884;2023-04-01T23:13:20;97636.97;;;9.04
75658;BMP280;64255;49.892;17.884;2023-04-01T23:16:10;97636.06;;;9.07
75658;BMP280;64255;49.892;17.884;2023-04-01T23:19:11;97635.88;;;9.16
75658;BMP280;64255;49.892;17.884;2023-04-01T23:29:20;97636.50;;;9.05
75658;BMP280;64255;49.892;17.884;2023-04-01T23:32:34;97640.13;;;8.76
75658;BMP280;64255;49.892;17.884;2023-04-01T23:35:21;97643.88;;;8.64
75658;BMP280;64255;49.892;17.884;2023-04-01T23:38:08;97644.25;;;9.03
75658;BMP280;64255;49.892;17.884;2023-04-01T23:40:55;97645.69;;;8.52
75658;BMP280;64255;49.892;17.884;2023-04-01T23:43:44;97652.75;;;8.55
75658;BMP280;64255;49.892;17.884;2023-04-01T23:46:34;97648.22;;;8.61
75658;BMP280;64255;49.892;17.884;2023-04-01T23:49:48;97646.44;;;8.79
75658;BMP280;64255;49.892;17.884;2023-04-01T23:53:03;97652.41;;;8.94
75658;BMP280;64255;49.892;17.884;2023-04-01T23:55:52;97650.50;;;8.95
75658;BMP280;64255;49.892;17.884;2023-04-01T23:58:49;97660.69;;;8.96
